Terminal Aerodrome Forecast
Issued by NWS Louisville, KY

Home | Current Version | Previous Version | Text Only | Print | Product List | Glossary On
Versions: 1 2 3 4 5 6 7 8 9 10 11 12 13 14 15 16 17 18 19 20
796
FTUS43 KLMK 241120
TAFSDF
TAF
KSDF 241120Z 2412/2518 25010KT P6SM FEW015 BKN100
     FM241500 26018G25KT P6SM BKN050
     FM242300 26008KT P6SM OVC040
     FM251400 25012KT P6SM SCT050=

USA.gov is the U.S. government's official web portal to all federal, state and local government web resources and services.